メインページ
METAR-TAF:

METAR-TAF

空港 :

バンクーバー国際空港

バンクーバー, ブリティッシュコロンビア州, カナダ

緯度: 49-11N, 経度: 123-10W, 海抜: 3m

現時点の気象観測

当レポートは49分前の09:00(UTC)に作成
東/南東の風 10kt
気温 14°C
湿度 82%
気圧 1014 hPa
視程: 24.1km
高度5300ftの雲はほとんどない
高度8900ftの雲は散在している
高度14000ftの曇り

METAR: CYVR 200900Z 12010KT 15SM FEW053 SCT089 OVC140 14/11 A2993 RMK SC2AC1AC5 SLP138

時間: 02:49 (09:49 UTC)

予報

当レポートは1時間11分前の08:38(UTC)に作成
予報は20日の 09時(UTC)から 21日の 12時(UTC)まで有効
東/南東の風 10kt
視程: 10km
高度2000ftの雲はほとんどない
高度6000ftの千切れ雲あり
20日の 09時(UTC)から 20日の 12時(UTC)まで一時的に
視程: 10km
高度2000ftの雲は散在している
高度6000ftの曇り
弱いにわか雨
20日の 2000時(UTC)から
南東の風 8kt
視程: 10km
高度5000ftの千切れ雲あり

TAF: CYVR 200838Z 2009/2112 12010KT P6SM FEW020 BKN060 TEMPO 2009/2012 P6SM -SHRA SCT020 OVC060 FM202000 13008KT P6SM BKN050 RMK NXT FCST BY 201200Z

4,000以上の空港の気象観測と天気予報(METAR報とTAF報)

利用可能な観測所は地図上に黄色い丸と赤い丸で示す。

丸の上にカーソルを重ねると観測所名を参照できる。

次にクリックすると気象観測と天気予報を参照できる。

マップの切り替え:黒色「×」印の緑ボタンをクリックして拡大、「-」印の緑ボタンをクリックして縮小、緑色の三角印をクリックして隣りの地図に切り替え


METAR-TAF: